MiSS Rachel — WDC2593 — position and weather

sailwx.info

Track history (hours):
 
Tides and Currents Weather Stations Pressure Air Temp Water Temp Dewpoint Dewpoint Depression Visibility Wind Speed Wind Dir Waves Ship Positions

MiSS Rachel

Owner: Kirby Inland Marine LP, Houston, TX. More information available from US FCC via Universal Licensing System and Coast Guard Vessel Documentation Center.

Last reported at 2017-Nov-23 20:59 UTC. Time now 2017-Nov-24 00:21 UTC.
Position N 29°44' W 095°08'.

Length 87 m; draft 2.9 m.

Type: . MMSI: 366995370.

Date/timePositionNaut miles runAvg speedWind from/ knotsBaromVisibWave heightAir tempDewpointWater temp
2017-Nov-23 20:59N 29°44' W 095°08'0 0.2
2017-Nov-23 20:27N 29°44' W 095°08'3 1.5
2017-Nov-23 18:23N 29°46' W 095°05'1 0.4
2017-Nov-23 15:07N 29°47' W 095°04'1 4.1
2017-Nov-23 14:50N 29°46' W 095°04'0 0.2
2017-Nov-23 14:10N 29°46' W 095°04'1 3.1
2017-Nov-23 13:50N 29°45' W 095°05'1 0.0
2017-Nov-22 23:17N 29°45' W 095°06'0 1.5
2017-Nov-22 22:59N 29°45' W 095°06'1 0.2
2017-Nov-22 19:39N 29°46' W 095°05'  
2017-Nov-17 16:06N 29°34' W 090°29'1 5.7
2017-Nov-17 15:59N 29°34' W 090°30'2 5.1
2017-Nov-17 15:31N 29°34' W 090°33'3 5.2
2017-Nov-17 15:00N 29°35' W 090°36'2 3.9
2017-Nov-17 14:31N 29°35' W 090°38'1 1.3
2017-Nov-17 13:57N 29°35' W 090°38'0 0.0
2017-Nov-17 13:30N 29°35' W 090°38'0 0.0
2017-Nov-17 13:00N 29°35' W 090°38'0 0.0
2017-Nov-17 12:30N 29°35' W 090°38'0 0.0
2017-Nov-17 12:00N 29°35' W 090°38'0 0.0
2017-Nov-17 11:29N 29°35' W 090°38'0 0.0
2017-Nov-17 11:00N 29°35' W 090°38'0 0.0
2017-Nov-17 10:30N 29°35' W 090°38'0 0.0
2017-Nov-17 10:00N 29°35' W 090°38'0 0.2
2017-Nov-17 09:30N 29°35' W 090°39'0 0.3
2017-Nov-17 09:00N 29°35' W 090°39'2 3.4
2017-Nov-17 08:30N 29°36' W 090°41'2 3.7
2017-Nov-17 08:00N 29°36' W 090°43'3 5.2
2017-Nov-17 07:30N 29°34' W 090°44'3 5.5
2017-Nov-17 07:00N 29°32' W 090°47'3 5.4
2017-Nov-17 06:30N 29°32' W 090°50'62 5.0
2017-Nov-16 17:55N 29°50' W 091°59'2 6.0
2017-Nov-16 17:31N 29°49' W 092°01'3 5.7
2017-Nov-16 17:00N 29°48' W 092°05'3 5.5
2017-Nov-16 16:31N 29°47' W 092°07'3 5.6
2017-Nov-16 16:00N 29°47' W 092°11'2 4.2
2017-Nov-16 15:31N 29°47' W 092°13'1 1.1
2017-Nov-16 15:00N 29°48' W 092°13'1 1.8
2017-Nov-16 14:30N 29°48' W 092°14'1 3.0
2017-Nov-16 14:00N 29°49' W 092°16'2 4.5
2017-Nov-16 13:30N 29°50' W 092°18'1 2.2
2017-Nov-16 12:56N 29°50' W 092°19'0 0.0
2017-Nov-16 12:31N 29°50' W 092°19'0 0.0
2017-Nov-16 11:56N 29°50' W 092°19'0 0.0
2017-Nov-16 11:30N 29°50' W 092°19'0 0.0
2017-Nov-16 11:00N 29°50' W 092°19'0 0.1
2017-Nov-16 10:30N 29°50' W 092°19'0 0.1
2017-Nov-16 10:00N 29°50' W 092°19'0 0.1
2017-Nov-16 09:30N 29°50' W 092°19'0 0.0
2017-Nov-16 09:00N 29°50' W 092°19'0 0.0
2017-Nov-16 08:30N 29°50' W 092°19'0 0.0
2017-Nov-16 08:00N 29°50' W 092°19'0 0.0
2017-Nov-16 07:30N 29°50' W 092°19'0 0.0
2017-Nov-16 07:01N 29°50' W 092°19'0 0.0
2017-Nov-16 06:30N 29°50' W 092°19'1 1.2
2017-Nov-16 06:00N 29°51' W 092°20'2 4.0
2017-Nov-16 05:27N 29°52' W 092°22'2 5.1
2017-Nov-16 05:00N 29°53' W 092°24'3 5.2
2017-Nov-16 04:30N 29°54' W 092°27'32 5.0
2017-Nov-15 21:58N 29°56' W 093°05'1 3.0
2017-Nov-15 21:30N 29°56' W 093°06'2 4.9
2017-Nov-15 21:00N 29°56' W 093°09'2 4.3
2017-Nov-15 20:30N 29°58' W 093°11'3 5.1
2017-Nov-15 20:00N 29°59' W 093°13'2 4.8
2017-Nov-15 19:30N 30°02' W 093°14'1 2.6
2017-Nov-15 19:00N 30°02' W 093°15'3 5.1
2017-Nov-15 18:30N 30°05' W 093°17'2 3.9
2017-Nov-15 18:01N 30°06' W 093°18'2 3.3
2017-Nov-15 17:31N 30°05' W 093°20'3 5.0
2017-Nov-15 17:00N 30°04' W 093°22'3 6.1
2017-Nov-15 16:30N 30°04' W 093°26'3 5.7
2017-Nov-15 16:00N 30°04' W 093°29'3 5.6
2017-Nov-15 15:30N 30°04' W 093°32'3 5.6
2017-Nov-15 14:59N 30°04' W 093°36'4 5.6
2017-Nov-15 14:16N 30°03' W 093°40'71 3.9
2017-Nov-14 19:49N 29°33' W 094°54'2 6.4
2017-Nov-14 19:30N 29°34' W 094°56'4 6.3
2017-Nov-14 18:54N 29°38' W 094°58'3 6.7
2017-Nov-14 18:30N 29°40' W 094°59'3 5.1
2017-Nov-14 17:58N 29°42' W 095°01'3 5.9
2017-Nov-14 17:29N 29°44' W 095°03'  
Track history (hours):
 
Tides and Currents Weather Stations Pressure Air Temp Water Temp Dewpoint Dewpoint Depression Visibility Wind Speed Wind Dir Waves Ship Positions

MiSS Rachel

Owner: Kirby Inland Marine LP, Houston, TX. More information available from US FCC via Universal Licensing System and Coast Guard Vessel Documentation Center.

Last reported at 2017-Nov-23 20:59 UTC. Time now 2017-Nov-24 00:21 UTC.
Position N 29°44' W 095°08'.

Length 87 m; draft 2.9 m.

Type: . MMSI: 366995370.

Date/timePositionNaut miles runAvg speedWind from/ knotsBaromVisibWave heightAir tempDewpointWater temp
2017-Nov-23 20:59N 29°44' W 095°08'0 0.2
2017-Nov-23 20:27N 29°44' W 095°08'3 1.5
2017-Nov-23 18:23N 29°46' W 095°05'1 0.4
2017-Nov-23 15:07N 29°47' W 095°04'1 4.1
2017-Nov-23 14:50N 29°46' W 095°04'0 0.2
2017-Nov-23 14:10N 29°46' W 095°04'1 3.1
2017-Nov-23 13:50N 29°45' W 095°05'1 0.0
2017-Nov-22 23:17N 29°45' W 095°06'0 1.5
2017-Nov-22 22:59N 29°45' W 095°06'1 0.2
2017-Nov-22 19:39N 29°46' W 095°05'  
2017-Nov-17 16:06N 29°34' W 090°29'1 5.7
2017-Nov-17 15:59N 29°34' W 090°30'2 5.1
2017-Nov-17 15:31N 29°34' W 090°33'3 5.2
2017-Nov-17 15:00N 29°35' W 090°36'2 3.9
2017-Nov-17 14:31N 29°35' W 090°38'1 1.3
2017-Nov-17 13:57N 29°35' W 090°38'0 0.0
2017-Nov-17 13:30N 29°35' W 090°38'0 0.0
2017-Nov-17 13:00N 29°35' W 090°38'0 0.0
2017-Nov-17 12:30N 29°35' W 090°38'0 0.0
2017-Nov-17 12:00N 29°35' W 090°38'0 0.0
2017-Nov-17 11:29N 29°35' W 090°38'0 0.0
2017-Nov-17 11:00N 29°35' W 090°38'0 0.0
2017-Nov-17 10:30N 29°35' W 090°38'0 0.0
2017-Nov-17 10:00N 29°35' W 090°38'0 0.2
2017-Nov-17 09:30N 29°35' W 090°39'0 0.3
2017-Nov-17 09:00N 29°35' W 090°39'2 3.4
2017-Nov-17 08:30N 29°36' W 090°41'2 3.7
2017-Nov-17 08:00N 29°36' W 090°43'3 5.2
2017-Nov-17 07:30N 29°34' W 090°44'3 5.5
2017-Nov-17 07:00N 29°32' W 090°47'3 5.4
2017-Nov-17 06:30N 29°32' W 090°50'62 5.0
2017-Nov-16 17:55N 29°50' W 091°59'2 6.0
2017-Nov-16 17:31N 29°49' W 092°01'3 5.7
2017-Nov-16 17:00N 29°48' W 092°05'3 5.5
2017-Nov-16 16:31N 29°47' W 092°07'3 5.6
2017-Nov-16 16:00N 29°47' W 092°11'2 4.2
2017-Nov-16 15:31N 29°47' W 092°13'1 1.1
2017-Nov-16 15:00N 29°48' W 092°13'1 1.8
2017-Nov-16 14:30N 29°48' W 092°14'1 3.0
2017-Nov-16 14:00N 29°49' W 092°16'2 4.5
2017-Nov-16 13:30N 29°50' W 092°18'1 2.2
2017-Nov-16 12:56N 29°50' W 092°19'0 0.0
2017-Nov-16 12:31N 29°50' W 092°19'0 0.0
2017-Nov-16 11:56N 29°50' W 092°19'0 0.0
2017-Nov-16 11:30N 29°50' W 092°19'0 0.0
2017-Nov-16 11:00N 29°50' W 092°19'0 0.1
2017-Nov-16 10:30N 29°50' W 092°19'0 0.1
2017-Nov-16 10:00N 29°50' W 092°19'0 0.1
2017-Nov-16 09:30N 29°50' W 092°19'0 0.0
2017-Nov-16 09:00N 29°50' W 092°19'0 0.0
2017-Nov-16 08:30N 29°50' W 092°19'0 0.0
2017-Nov-16 08:00N 29°50' W 092°19'0 0.0
2017-Nov-16 07:30N 29°50' W 092°19'0 0.0
2017-Nov-16 07:01N 29°50' W 092°19'0 0.0
2017-Nov-16 06:30N 29°50' W 092°19'1 1.2
2017-Nov-16 06:00N 29°51' W 092°20'2 4.0
2017-Nov-16 05:27N 29°52' W 092°22'2 5.1
2017-Nov-16 05:00N 29°53' W 092°24'3 5.2
2017-Nov-16 04:30N 29°54' W 092°27'32 5.0
2017-Nov-15 21:58N 29°56' W 093°05'1 3.0
2017-Nov-15 21:30N 29°56' W 093°06'2 4.9
2017-Nov-15 21:00N 29°56' W 093°09'2 4.3
2017-Nov-15 20:30N 29°58' W 093°11'3 5.1
2017-Nov-15 20:00N 29°59' W 093°13'2 4.8
2017-Nov-15 19:30N 30°02' W 093°14'1 2.6
2017-Nov-15 19:00N 30°02' W 093°15'3 5.1
2017-Nov-15 18:30N 30°05' W 093°17'2 3.9
2017-Nov-15 18:01N 30°06' W 093°18'2 3.3
2017-Nov-15 17:31N 30°05' W 093°20'3 5.0
2017-Nov-15 17:00N 30°04' W 093°22'3 6.1
2017-Nov-15 16:30N 30°04' W 093°26'3 5.7
2017-Nov-15 16:00N 30°04' W 093°29'3 5.6
2017-Nov-15 15:30N 30°04' W 093°32'3 5.6
2017-Nov-15 14:59N 30°04' W 093°36'4 5.6
2017-Nov-15 14:16N 30°03' W 093°40'71 3.9
2017-Nov-14 19:49N 29°33' W 094°54'2 6.4
2017-Nov-14 19:30N 29°34' W 094°56'4 6.3
2017-Nov-14 18:54N 29°38' W 094°58'3 6.7
2017-Nov-14 18:30N 29°40' W 094°59'3 5.1
2017-Nov-14 17:58N 29°42' W 095°01'3 5.9
2017-Nov-14 17:29N 29°44' W 095°03'  

Dump ship's entire track history